Time;durP1;ratioP1;P1;durP2;ratioP2;P2;SDS_P1;SDS_P2;PMS_P1;PMS_P2;Temp;Humidity;BMP_temperature;BMP_pressure;BME280_temperature;BME280_humidity;BME280_pressure;Samples;Min_cycle;Max_cycle;Signal;HPM_P1;HPM_P2
2021/10/24 00:00:12;;;;;;;;;;;;;;;;;;2074380;28;1584;-81
2021/10/24 00:01:12;;;;;;;;;;;;;;;;;;2082534;28;837;-81
2021/10/24 00:02:16;;;;;;;;;;;;;;;;;;2091184;28;1703;-81
2021/10/24 00:03:17;;;;;;;;;;;;;;;;;;2090795;28;1433;-81
2021/10/24 00:04:18;;;;;;;;;;;;;;;;;;2090836;28;1242;-80
2021/10/24 00:05:19;;;;;;;;;;;;;;;;;;2090871;28;1200;-81
2021/10/24 00:06:21;;;;;;;;;;;;;;;;;;2090818;28;1751;-80
2021/10/24 00:07:22;;;;;;;;;;;;;;;;;;2082302;28;1214;-82
2021/10/24 00:08:24;;;;;;;;;;;;;;;;;;2082455;28;1918;-81
2021/10/24 00:09:25;;;;;;;;;;;;;;;;;;2090726;28;1385;-81
2021/10/24 00:10:26;;;;;;;;;;;;;;;;;;2091063;28;1649;-81
2021/10/24 00:11:28;;;;;;;;;;;;;;;;;;2082182;28;1418;-80
2021/10/24 00:12:28;;;;;;;;;;;;;;;;;;2087920;28;1524;-81
2021/10/24 00:13:30;;;;;;;;;;;;;;;;;;2090677;28;1263;-80
2021/10/24 00:14:31;;;;;;;;;;;;;;;;;;2082856;28;1251;-81
2021/10/24 00:15:33;;;;;;;;;;;;;;;;;;2090649;28;1266;-81
2021/10/24 00:16:34;;;;;;;;;;;;;;;;;;2090979;28;1298;-81
2021/10/24 00:17:37;;;;;;;;;;;;;;;;;;2090607;28;2045;-81
2021/10/24 00:18:38;;;;;;;;;;;;;;;;;;2082591;28;880;-81
2021/10/24 00:19:40;;;;;;;;;;;;;;;;;;2082242;28;1473;-81
2021/10/24 00:20:40;;;;;;;;;;;;;;;;;;2082632;28;1226;-81
2021/10/24 00:21:43;;;;;;;;;;;;;;;;;;2082271;28;1521;-81
2021/10/24 00:22:43;;;;;;;;;;;;;;;;;;2076891;28;2008;-81
2021/10/24 00:23:45;;;;;;;;;;;;;;;;;;2082315;28;1270;-81
2021/10/24 00:24:46;;;;;;;;;;;;;;;;;;2082518;28;1202;-81
2021/10/24 00:25:50;;;;;;;;;;;;;;;;;;2090530;28;1638;-81
2021/10/24 00:26:50;;;;;;;;;;;;;;;;;;2099205;28;953;-81
2021/10/24 00:27:52;;;;;;;;;;;;;;;;;;2096337;28;1973;-81
2021/10/24 00:28:53;;;;;;;;;;;;;;;;;;2082959;28;1206;-82
2021/10/24 00:29:55;;;;;;;;;;;;;;;;;;2074258;28;1265;-81
2021/10/24 00:30:56;;;;;;;;;;;;;;;;;;2075178;28;1738;-83
2021/10/24 00:31:58;;;;;;;;;;;;;;;;;;2084122;28;1298;-81
2021/10/24 00:33:01;;;;;;;;;;;;;;;;;;2083388;28;2111;-82
2021/10/24 00:34:03;;;;;;;;;;;;;;;;;;2084479;28;1253;-81
2021/10/24 00:35:04;;;;;;;;;;;;;;;;;;2084177;28;1682;-81
2021/10/24 00:36:07;;;;;;;;;;;;;;;;;;2084222;28;1746;-80
2021/10/24 00:37:07;;;;;;;;;;;;;;;;;;2084040;28;1381;-81
2021/10/24 00:38:09;;;;;;;;;;;;;;;;;;2083768;28;1251;-81
2021/10/24 00:39:12;;;;;;;;;;;;;;;;;;2083959;28;1347;-81
2021/10/24 00:40:12;;;;;;;;;;;;;;;;;;2083926;28;1204;-81
2021/10/24 00:41:16;;;;;;;;;;;;;;;;;;2083741;28;1640;-81
2021/10/24 00:42:16;;;;;;;;;;;;;;;;;;2084304;28;1257;-81
2021/10/24 00:43:18;;;;;;;;;;;;;;;;;;2075925;28;1274;-82
2021/10/24 00:44:20;;;;;;;;;;;;;;;;;;2083835;28;1299;-81
2021/10/24 00:45:24;;;;;;;;;;;;;;;;;;2084058;28;1223;-82
2021/10/24 00:46:24;;;;;;;;;;;;;;;;;;2091946;28;1428;-82
2021/10/24 00:47:30;;;;;;;;;;;;;;;;;;2092096;28;1278;-82
2021/10/24 00:48:32;;;;;;;;;;;;;;;;;;2084242;28;2067;-82
2021/10/24 00:49:34;;;;;;;;;;;;;;;;;;2084140;28;1217;-82
2021/10/24 00:50:35;;;;;;;;;;;;;;;;;;2084178;28;1219;-82
2021/10/24 00:51:37;;;;;;;;;;;;;;;;;;2084095;28;1346;-81
2021/10/24 00:52:39;;;;;;;;;;;;;;;;;;2084055;28;1957;-82
2021/10/24 00:53:42;;;;;;;;;;;;;;;;;;2091938;28;1298;-81
2021/10/24 00:54:44;;;;;;;;;;;;;;;;;;2100292;28;1425;-81
2021/10/24 00:55:46;;;;;;;;;;;;;;;;;;2092281;28;1182;-81
2021/10/24 00:56:49;;;;;;;;;;;;;;;;;;2092544;28;1351;-82
2021/10/24 00:57:51;;;;;;;;;;;;;;;;;;2100260;28;1546;-81
2021/10/24 00:58:53;;;;;;;;;;;;;;;;;;2100781;28;1336;-82
2021/10/24 00:59:55;;;;;;;;;;;;;;;;;;2100382;28;1293;-82
2021/10/24 01:00:57;;;;;;;;;;;;;;;;;;2100399;28;1281;-81
2021/10/24 01:01:58;;;;;;;;;;;;;;;;;;2092678;28;1258;-82
2021/10/24 01:03:01;;;;;;;;;;;;;;;;;;2088706;28;1253;-82
2021/10/24 01:04:03;;;;;;;;;;;;;;;;;;2091913;28;1469;-82
2021/10/24 01:05:06;;;;;;;;;;;;;;;;;;2091925;28;1279;-82
2021/10/24 01:06:08;;;;;;;;;;;;;;;;;;2084027;28;1836;-82
2021/10/24 01:07:10;;;;;;;;;;;;;;;;;;2092582;28;1565;-82
2021/10/24 01:08:12;;;;;;;;;;;;;;;;;;2091854;28;1917;-82
2021/10/24 01:09:14;;;;;;;;;;;;;;;;;;2083778;28;1639;-82
2021/10/24 01:10:16;;;;;;;;;;;;;;;;;;2084199;28;1318;-82
2021/10/24 01:11:17;;;;;;;;;;;;;;;;;;2092174;28;812;-82
2021/10/24 01:12:19;;;;;;;;;;;;;;;;;;2091946;28;1271;-82
2021/10/24 01:13:21;;;;;;;;;;;;;;;;;;2078254;28;1283;-82
2021/10/24 01:14:23;;;;;;;;;;;;;;;;;;2075392;28;1231;-82
2021/10/24 01:15:24;;;;;;;;;;;;;;;;;;2075511;28;1351;-82
2021/10/24 01:16:26;;;;;;;;;;;;;;;;;;2075706;28;1528;-82
2021/10/24 01:17:27;;;;;;;;;;;;;;;;;;2075653;28;1226;-82
2021/10/24 01:18:29;;;;;;;;;;;;;;;;;;2091291;28;1388;-82
2021/10/24 01:19:31;;;;;;;;;;;;;;;;;;2100018;28;1422;-82
2021/10/24 01:20:33;;;;;;;;;;;;;;;;;;2092189;28;1368;-82
2021/10/24 01:21:36;;;;;;;;;;;;;;;;;;2083705;28;1398;-81
2021/10/24 01:22:38;;;;;;;;;;;;;;;;;;2075889;28;1941;-82
2021/10/24 01:23:40;;;;;;;;;;;;;;;;;;2075345;28;1473;-82
2021/10/24 01:24:42;;;;;;;;;;;;;;;;;;2076235;28;1318;-82
2021/10/24 01:25:44;;;;;;;;;;;;;;;;;;2083578;28;1246;-82
2021/10/24 01:26:45;;;;;;;;;;;;;;;;;;2083703;28;1263;-81
2021/10/24 01:27:47;;;;;;;;;;;;;;;;;;2085362;28;1246;-82
2021/10/24 01:28:49;;;;;;;;;;;;;;;;;;2092004;28;1914;-82
2021/10/24 01:29:51;;;;;;;;;;;;;;;;;;2083905;28;1302;-82
2021/10/24 01:30:52;;;;;;;;;;;;;;;;;;2084022;28;1282;-83
2021/10/24 01:31:55;;;;;;;;;;;;;;;;;;2084007;28;1372;-82
2021/10/24 01:32:56;;;;;;;;;;;;;;;;;;2083970;28;1252;-82
2021/10/24 01:34:00;;;;;;;;;;;;;;;;;;2083817;28;1390;-82
2021/10/24 01:35:02;;;;;;;;;;;;;;;;;;2075054;28;1410;-82
2021/10/24 01:36:05;;;;;;;;;;;;;;;;;;2083780;28;1305;-82
2021/10/24 01:37:07;;;;;;;;;;;;;;;;;;2092040;28;1354;-82
2021/10/24 01:38:09;;;;;;;;;;;;;;;;;;2091631;28;1277;-82
2021/10/24 01:39:10;;;;;;;;;;;;;;;;;;2091547;28;1246;-83
2021/10/24 01:40:15;;;;;;;;;;;;;;;;;;2084136;28;1489;-82
2021/10/24 01:41:16;;;;;;;;;;;;;;;;;;2083518;28;1216;-82
2021/10/24 01:42:19;;;;;;;;;;;;;;;;;;2083649;28;1196;-82
2021/10/24 01:43:22;;;;;;;;;;;;;;;;;;2097624;28;1207;-83
2021/10/24 01:44:22;;;;;;;;;;;;;;;;;;2092180;28;1214;-82
2021/10/24 01:45:28;;;;;;;;;;;;;;;;;;2084049;28;1213;-83
2021/10/24 01:46:40;;;;;;;;;;;;;;;;;;2085831;28;1238;-82
2021/10/24 01:47:41;;;;;;;;;;;;;;;;;;2083611;28;1252;-82
2021/10/24 01:48:43;;;;;;;;;;;;;;;;;;2091406;28;1977;-82
2021/10/24 01:49:44;;;;;;;;;;;;;;;;;;2083905;28;1152;-82
2021/10/24 01:50:47;;;;;;;;;;;;;;;;;;2083815;28;1429;-83
2021/10/24 01:51:47;;;;;;;;;;;;;;;;;;2092003;28;1376;-82
2021/10/24 01:52:51;;;;;;;;;;;;;;;;;;2091869;28;1229;-83
2021/10/24 01:53:52;;;;;;;;;;;;;;;;;;2083446;28;1326;-82
2021/10/24 01:54:55;;;;;;;;;;;;;;;;;;2083875;28;1416;-82
2021/10/24 01:55:56;;;;;;;;;;;;;;;;;;2075380;28;1312;-83
2021/10/24 01:57:00;;;;;;;;;;;;;;;;;;2075900;28;1096;-83
2021/10/24 01:58:03;;;;;;;;;;;;;;;;;;2091942;28;1083;-83
2021/10/24 01:59:07;;;;;;;;;;;;;;;;;;2092246;28;1335;-83
2021/10/24 02:00:29;;;;;;;;;;;;;;;;;;2083316;28;1322;-83
2021/10/24 02:01:30;;;;;;;;;;;;;;;;;;2088300;28;1258;-82
2021/10/24 02:02:36;;;;;;;;;;;;;;;;;;2084527;28;1444;-81
2021/10/24 02:03:55;;;;;;;;;;;;;;;;;;2091631;28;1470;-82
2021/10/24 02:05:10;;;;;;;;;;;;;;;;;;2091740;28;1380;-82
2021/10/24 02:06:12;;;;;;;;;;;;;;;;;;2091704;28;1402;-82
2021/10/24 02:07:13;;;;;;;;;;;;;;;;;;2075522;28;1383;-83
2021/10/24 02:08:16;;;;;;;;;;;;;;;;;;2077561;28;2076;-83
2021/10/24 02:09:17;;;;;;;;;;;;;;;;;;2092117;28;1314;-82
2021/10/24 02:10:19;;;;;;;;;;;;;;;;;;2099783;28;1512;-83
2021/10/24 02:11:21;;;;;;;;;;;;;;;;;;2107873;28;1371;-82
2021/10/24 02:12:23;;;;;;;;;;;;;;;;;;2091960;28;1255;-82
2021/10/24 02:13:32;;;;;;;;;;;;;;;;;;2091777;28;1280;-82
2021/10/24 02:14:38;;;;;;;;;;;;;;;;;;2086158;28;1281;-81
2021/10/24 02:15:40;;;;;;;;;;;;;;;;;;2099817;28;1345;-81
2021/10/24 02:16:41;;;;;;;;;;;;;;;;;;2091759;28;1282;-82
2021/10/24 02:17:44;;;;;;;;;;;;;;;;;;2089983;28;1220;-82
2021/10/24 02:18:45;;;;;;;;;;;;;;;;;;2092168;28;1510;-82
2021/10/24 02:19:47;;;;;;;;;;;;;;;;;;2091113;28;1354;-82
2021/10/24 02:20:48;;;;;;;;;;;;;;;;;;2091711;28;1174;-81
2021/10/24 02:21:49;;;;;;;;;;;;;;;;;;2091524;28;1305;-81
2021/10/24 02:22:50;;;;;;;;;;;;;;;;;;2083492;28;1252;-81
2021/10/24 02:23:55;;;;;;;;;;;;;;;;;;2083252;28;1444;-81
2021/10/24 02:24:57;;;;;;;;;;;;;;;;;;2075539;28;1125;-83
2021/10/24 02:25:59;;;;;;;;;;;;;;;;;;2075043;28;1313;-82
2021/10/24 02:27:00;;;;;;;;;;;;;;;;;;2082690;28;1260;-82
2021/10/24 02:28:04;;;;;;;;;;;;;;;;;;2083760;28;1326;-81
2021/10/24 02:29:04;;;;;;;;;;;;;;;;;;2083096;28;1902;-81
2021/10/24 02:30:09;;;;;;;;;;;;;;;;;;2091477;28;1461;-81
2021/10/24 02:31:10;;;;;;;;;;;;;;;;;;2091346;28;1461;-82
2021/10/24 02:32:30;;;;;;;;;;;;;;;;;;2085897;28;1358;-81
2021/10/24 02:33:38;;;;;;;;;;;;;;;;;;2076043;28;1647;-82
2021/10/24 02:34:49;;;;;;;;;;;;;;;;;;2087000;28;1282;-82
2021/10/24 02:36:05;;;;;;;;;;;;;;;;;;2091651;28;1328;-83
2021/10/24 02:37:06;;;;;;;;;;;;;;;;;;2083524;28;913;-82
2021/10/24 02:38:08;;;;;;;;;;;;;;;;;;2083122;28;2024;-83
2021/10/24 02:39:10;;;;;;;;;;;;;;;;;;2082788;28;1372;-83
2021/10/24 02:40:14;;;;;;;;;;;;;;;;;;2092137;28;1482;-82
2021/10/24 02:41:18;;;;;;;;;;;;;;;;;;2091674;28;1258;-83
2021/10/24 02:42:21;;;;;;;;;;;;;;;;;;2091657;28;1493;-82
2021/10/24 02:43:21;;;;;;;;;;;;;;;;;;2082796;28;1206;-83
2021/10/24 02:44:25;;;;;;;;;;;;;;;;;;2083409;28;1331;-82
2021/10/24 02:45:28;;;;;;;;;;;;;;;;;;2083545;28;1197;-83
2021/10/24 02:46:31;;;;;;;;;;;;;;;;;;2083622;28;1329;-83
2021/10/24 02:47:32;;;;;;;;;;;;;;;;;;2075233;28;1188;-82
2021/10/24 02:48:35;;;;;;;;;;;;;;;;;;2075330;28;1914;-83
2021/10/24 02:49:36;;;;;;;;;;;;;;;;;;2083144;28;1239;-82
2021/10/24 02:50:39;;;;;;;;;;;;;;;;;;2091400;28;2211;-83
2021/10/24 02:51:41;;;;;;;;;;;;;;;;;;2083386;28;1441;-82
2021/10/24 02:52:43;;;;;;;;;;;;;;;;;;2083214;28;1361;-83
2021/10/24 02:53:43;;;;;;;;;;;;;;;;;;2082480;28;1284;-82
2021/10/24 02:54:47;;;;;;;;;;;;;;;;;;2082476;28;1464;-82
2021/10/24 02:55:48;;;;;;;;;;;;;;;;;;2091309;28;1186;-82
2021/10/24 02:56:50;;;;;;;;;;;;;;;;;;2091629;28;1389;-82
2021/10/24 02:57:52;;;;;;;;;;;;;;;;;;2097170;28;1327;-82
2021/10/24 02:58:55;;;;;;;;;;;;;;;;;;2083307;28;1187;-82
2021/10/24 02:59:56;;;;;;;;;;;;;;;;;;2083179;28;1243;-82
2021/10/24 03:00:59;;;;;;;;;;;;;;;;;;2083362;28;1236;-83
2021/10/24 03:02:03;;;;;;;;;;;;;;;;;;2083516;28;1286;-82
2021/10/24 03:03:08;;;;;;;;;;;;;;;;;;2083274;28;1301;-82
2021/10/24 03:04:12;;;;;;;;;;;;;;;;;;2083844;28;1465;-82
2021/10/24 03:05:19;;;;;;;;;;;;;;;;;;2083850;28;1189;-82
2021/10/24 03:06:23;;;;;;;;;;;;;;;;;;2083655;28;1688;-83
2021/10/24 03:07:29;;;;;;;;;;;;;;;;;;2083308;28;1393;-81
2021/10/24 03:08:32;;;;;;;;;;;;;;;;;;2074893;28;1262;-82
2021/10/24 03:09:35;;;;;;;;;;;;;;;;;;2075729;28;1395;-81
2021/10/24 03:10:39;;;;;;;;;;;;;;;;;;2083293;28;1440;-82
2021/10/24 03:11:40;;;;;;;;;;;;;;;;;;2074919;28;1196;-81
2021/10/24 03:12:42;;;;;;;;;;;;;;;;;;2075322;28;1542;-81
2021/10/24 03:13:43;;;;;;;;;;;;;;;;;;2082875;28;1375;-82
2021/10/24 03:14:45;;;;;;;;;;;;;;;;;;2082973;28;1504;-82
2021/10/24 03:15:49;;;;;;;;;;;;;;;;;;2083461;28;1269;-82
2021/10/24 03:16:51;;;;;;;;;;;;;;;;;;2083181;28;1317;-82
2021/10/24 03:17:53;;;;;;;;;;;;;;;;;;2083212;28;1315;-82
2021/10/24 03:18:55;;;;;;;;;;;;;;;;;;2082813;28;1770;-81
2021/10/24 03:19:56;;;;;;;;;;;;;;;;;;2082931;28;1539;-82
2021/10/24 03:20:58;;;;;;;;;;;;;;;;;;2083089;28;1290;-83
2021/10/24 03:21:59;;;;;;;;;;;;;;;;;;2083152;28;1386;-81
2021/10/24 03:23:01;;;;;;;;;;;;;;;;;;2090835;28;1319;-82
2021/10/24 03:24:04;;;;;;;;;;;;;;;;;;2090932;28;1325;-81
2021/10/24 03:25:06;;;;;;;;;;;;;;;;;;2083149;28;1546;-82
2021/10/24 03:26:09;;;;;;;;;;;;;;;;;;2089434;28;1300;-82
2021/10/24 03:27:10;;;;;;;;;;;;;;;;;;2082878;28;1389;-82
2021/10/24 03:28:11;;;;;;;;;;;;;;;;;;2082516;28;2013;-81
2021/10/24 03:29:13;;;;;;;;;;;;;;;;;;2082821;28;1968;-82
2021/10/24 03:30:14;;;;;;;;;;;;;;;;;;2082525;28;1399;-82
2021/10/24 03:31:16;;;;;;;;;;;;;;;;;;2082865;28;1390;-82
2021/10/24 03:32:18;;;;;;;;;;;;;;;;;;2083205;28;1302;-82
2021/10/24 03:33:20;;;;;;;;;;;;;;;;;;2082933;28;1232;-82
2021/10/24 03:34:21;;;;;;;;;;;;;;;;;;2083295;28;1254;-81
2021/10/24 03:35:23;;;;;;;;;;;;;;;;;;2082252;28;1375;-81
2021/10/24 03:36:25;;;;;;;;;;;;;;;;;;2082441;28;1528;-81
2021/10/24 03:37:26;;;;;;;;;;;;;;;;;;2082891;28;1216;-82
2021/10/24 03:38:28;;;;;;;;;;;;;;;;;;2091072;28;1384;-82
2021/10/24 03:39:31;;;;;;;;;;;;;;;;;;2091007;28;1444;-82
2021/10/24 03:40:37;;;;;;;;;;;;;;;;;;2082887;28;1603;-82
2021/10/24 03:41:40;;;;;;;;;;;;;;;;;;2082973;28;1470;-82
2021/10/24 03:42:45;;;;;;;;;;;;;;;;;;2084825;28;2071;-82
2021/10/24 03:43:47;;;;;;;;;;;;;;;;;;2091764;28;1278;-82
2021/10/24 03:44:51;;;;;;;;;;;;;;;;;;2091637;28;1421;-82
2021/10/24 03:45:54;;;;;;;;;;;;;;;;;;2087699;28;1869;-82
2021/10/24 03:46:58;;;;;;;;;;;;;;;;;;2083177;28;1302;-82
2021/10/24 03:48:00;;;;;;;;;;;;;;;;;;2083089;28;1465;-82
2021/10/24 03:49:09;;;;;;;;;;;;;;;;;;2083962;28;1913;-82
2021/10/24 03:50:11;;;;;;;;;;;;;;;;;;2082976;28;1329;-81
2021/10/24 03:51:15;;;;;;;;;;;;;;;;;;2083284;28;1079;-82
2021/10/24 03:52:16;;;;;;;;;;;;;;;;;;2082801;28;1195;-82
2021/10/24 03:53:17;;;;;;;;;;;;;;;;;;2090609;28;1305;-83
2021/10/24 03:54:19;;;;;;;;;;;;;;;;;;2090649;28;1362;-82
2021/10/24 03:55:20;;;;;;;;;;;;;;;;;;2090956;28;1290;-83
2021/10/24 03:56:22;;;;;;;;;;;;;;;;;;2075127;28;1531;-82
2021/10/24 03:57:24;;;;;;;;;;;;;;;;;;2074671;28;1238;-82
2021/10/24 03:58:27;;;;;;;;;;;;;;;;;;2091149;28;1295;-83
2021/10/24 03:59:29;;;;;;;;;;;;;;;;;;2082882;28;1392;-82
2021/10/24 04:00:30;;;;;;;;;;;;;;;;;;2082442;28;1409;-82
2021/10/24 04:01:38;;;;;;;;;;;;;;;;;;2082488;28;1184;-82
2021/10/24 04:02:50;;;;;;;;;;;;;;;;;;2074946;28;1423;-82
2021/10/24 04:03:51;;;;;;;;;;;;;;;;;;2076115;28;1279;-81
2021/10/24 04:04:53;;;;;;;;;;;;;;;;;;2074946;28;1167;-82
2021/10/24 04:05:54;;;;;;;;;;;;;;;;;;2082846;28;1228;-82
2021/10/24 04:06:55;;;;;;;;;;;;;;;;;;2084525;28;1397;-81
2021/10/24 04:07:56;;;;;;;;;;;;;;;;;;2076087;28;1348;-81
2021/10/24 04:08:58;;;;;;;;;;;;;;;;;;2075881;28;1971;-81
2021/10/24 04:10:00;;;;;;;;;;;;;;;;;;2084690;28;1772;-82
2021/10/24 04:11:02;;;;;;;;;;;;;;;;;;2084440;28;1453;-84
2021/10/24 04:12:04;;;;;;;;;;;;;;;;;;2084971;28;1109;-83
2021/10/24 04:13:09;;;;;;;;;;;;;;;;;;2084246;28;1279;-84
2021/10/24 04:14:10;;;;;;;;;;;;;;;;;;2092902;28;1184;-83
2021/10/24 04:15:14;;;;;;;;;;;;;;;;;;2092609;28;1385;-83
2021/10/24 04:16:14;;;;;;;;;;;;;;;;;;2084654;28;1148;-83
2021/10/24 04:17:35;;;;;;;;;;;;;;;;;;2084597;28;687;-83
2021/10/24 04:18:36;;;;;;;;;;;;;;;;;;2084488;28;1169;-83
2021/10/24 04:19:38;;;;;;;;;;;;;;;;;;2075896;28;1526;-83
2021/10/24 04:20:39;;;;;;;;;;;;;;;;;;2084680;28;1544;-83
2021/10/24 04:21:41;;;;;;;;;;;;;;;;;;2092604;28;1262;-83
2021/10/24 04:22:42;;;;;;;;;;;;;;;;;;2083991;28;1321;-83
2021/10/24 04:23:44;;;;;;;;;;;;;;;;;;2092427;28;1255;-83
2021/10/24 04:24:45;;;;;;;;;;;;;;;;;;2084089;28;1345;-83
2021/10/24 04:25:47;;;;;;;;;;;;;;;;;;2083736;28;1426;-83
2021/10/24 04:26:48;;;;;;;;;;;;;;;;;;2084943;28;1388;-83
2021/10/24 04:27:50;;;;;;;;;;;;;;;;;;2075861;28;1392;-84
2021/10/24 04:28:52;;;;;;;;;;;;;;;;;;2068381;28;1372;-84
2021/10/24 04:29:54;;;;;;;;;;;;;;;;;;2076170;28;1969;-84
2021/10/24 04:30:55;;;;;;;;;;;;;;;;;;2084480;28;1221;-84
2021/10/24 04:31:57;;;;;;;;;;;;;;;;;;2084279;28;1433;-84
2021/10/24 04:33:01;;;;;;;;;;;;;;;;;;2084284;28;1316;-85
2021/10/24 04:34:05;;;;;;;;;;;;;;;;;;2076590;28;988;-85
2021/10/24 04:35:06;;;;;;;;;;;;;;;;;;2084378;28;1368;-83
2021/10/24 04:36:08;;;;;;;;;;;;;;;;;;2084411;28;1333;-84
2021/10/24 04:37:09;;;;;;;;;;;;;;;;;;2079399;28;1663;-83
2021/10/24 04:38:11;;;;;;;;;;;;;;;;;;2083767;28;1240;-83
2021/10/24 04:39:11;;;;;;;;;;;;;;;;;;2091924;28;1257;-84
2021/10/24 04:40:14;;;;;;;;;;;;;;;;;;2092832;28;1473;-83
2021/10/24 04:41:23;;;;;;;;;;;;;;;;;;2085505;28;1180;-85
2021/10/24 04:42:26;;;;;;;;;;;;;;;;;;2084430;28;1219;-85
2021/10/24 04:43:26;;;;;;;;;;;;;;;;;;2092283;28;1239;-85
2021/10/24 04:44:31;;;;;;;;;;;;;;;;;;2092792;28;1195;-85
2021/10/24 04:45:34;;;;;;;;;;;;;;;;;;2092510;28;1223;-85
2021/10/24 04:46:38;;;;;;;;;;;;;;;;;;2076943;28;1157;-85
2021/10/24 04:47:39;;;;;;;;;;;;;;;;;;2076468;28;1201;-84
2021/10/24 04:48:41;;;;;;;;;;;;;;;;;;2084090;28;1426;-85
2021/10/24 04:49:42;;;;;;;;;;;;;;;;;;2091943;28;1926;-84
2021/10/24 04:50:44;;;;;;;;;;;;;;;;;;2092581;28;1274;-84
2021/10/24 04:51:47;;;;;;;;;;;;;;;;;;2092373;28;1262;-84
2021/10/24 04:52:49;;;;;;;;;;;;;;;;;;2084297;28;1353;-84
2021/10/24 04:53:51;;;;;;;;;;;;;;;;;;2084334;28;1317;-84
2021/10/24 04:54:54;;;;;;;;;;;;;;;;;;2092495;28;1192;-84
2021/10/24 04:55:55;;;;;;;;;;;;;;;;;;2084365;28;1252;-85
2021/10/24 04:56:58;;;;;;;;;;;;;;;;;;2084564;28;1464;-86
2021/10/24 04:58:00;;;;;;;;;;;;;;;;;;2087892;28;1901;-85
2021/10/24 04:59:02;;;;;;;;;;;;;;;;;;2092028;28;1446;-84
2021/10/24 05:00:06;;;;;;;;;;;;;;;;;;2100531;28;1188;-84
2021/10/24 05:01:10;;;;;;;;;;;;;;;;;;2092744;28;1094;-84
2021/10/24 05:02:10;;;;;;;;;;;;;;;;;;2100806;28;867;-84
2021/10/24 05:03:12;;;;;;;;;;;;;;;;;;2100505;28;1266;-85
2021/10/24 05:04:16;;;;;;;;;;;;;;;;;;2092715;28;1286;-84
2021/10/24 05:05:18;;;;;;;;;;;;;;;;;;2092519;28;1248;-84
2021/10/24 05:06:18;;;;;;;;;;;;;;;;;;2084082;28;1455;-84
2021/10/24 05:07:20;;;;;;;;;;;;;;;;;;2084041;28;1231;-84
2021/10/24 05:08:23;;;;;;;;;;;;;;;;;;2092085;28;1378;-84
2021/10/24 05:09:25;;;;;;;;;;;;;;;;;;2091920;28;1967;-84
2021/10/24 05:10:27;;;;;;;;;;;;;;;;;;2084269;28;1300;-84
2021/10/24 05:11:28;;;;;;;;;;;;;;;;;;2084043;28;1430;-84
2021/10/24 05:12:29;;;;;;;;;;;;;;;;;;2092345;28;1221;-84
2021/10/24 05:13:33;;;;;;;;;;;;;;;;;;2092084;28;1258;-84
2021/10/24 05:14:35;;;;;;;;;;;;;;;;;;2084659;28;1299;-84
2021/10/24 05:15:40;;;;;;;;;;;;;;;;;;2083451;28;1377;-84
2021/10/24 05:16:43;;;;;;;;;;;;;;;;;;2093520;28;1183;-83
2021/10/24 05:17:45;;;;;;;;;;;;;;;;;;2090897;28;1222;-84
2021/10/24 05:18:46;;;;;;;;;;;;;;;;;;2083746;28;1338;-84
2021/10/24 05:19:49;;;;;;;;;;;;;;;;;;2084101;28;1270;-84
2021/10/24 05:20:52;;;;;;;;;;;;;;;;;;2084516;28;1278;-84
2021/10/24 05:21:53;;;;;;;;;;;;;;;;;;2083600;28;1318;-84
2021/10/24 05:22:55;;;;;;;;;;;;;;;;;;2084392;28;1380;-83
2021/10/24 05:23:57;;;;;;;;;;;;;;;;;;2083977;28;1418;-83
2021/10/24 05:24:58;;;;;;;;;;;;;;;;;;2083699;28;1206;-85
2021/10/24 05:26:04;;;;;;;;;;;;;;;;;;2083349;28;1519;-79
2021/10/24 05:27:06;;;;;;;;;;;;;;;;;;2092614;28;1217;-80
2021/10/24 05:28:08;;;;;;;;;;;;;;;;;;2091634;28;1400;-80
2021/10/24 05:29:09;;;;;;;;;;;;;;;;;;2091412;28;1375;-80
2021/10/24 05:30:11;;;;;;;;;;;;;;;;;;2083422;28;1990;-79
2021/10/24 05:31:13;;;;;;;;;;;;;;;;;;2083573;28;1753;-79
2021/10/24 05:32:25;;;;;;;;;;;;;;;;;;2085350;28;1482;-79
2021/10/24 05:33:26;;;;;;;;;;;;;;;;;;2083418;28;1195;-79
2021/10/24 05:34:46;;;;;;;;;;;;;;;;;;2092132;28;611;-79
2021/10/24 05:35:53;;;;;;;;;;;;;;;;;;2091539;28;1212;-79
2021/10/24 05:36:55;;;;;;;;;;;;;;;;;;2075699;28;1644;-79
2021/10/24 05:37:57;;;;;;;;;;;;;;;;;;2075358;28;1470;-80
2021/10/24 05:39:04;;;;;;;;;;;;;;;;;;2084567;28;1389;-80
2021/10/24 05:40:07;;;;;;;;;;;;;;;;;;2091561;28;1150;-80
2021/10/24 05:41:19;;;;;;;;;;;;;;;;;;2091770;28;1346;-80
2021/10/24 05:42:20;;;;;;;;;;;;;;;;;;2075405;28;1764;-79
2021/10/24 05:43:22;;;;;;;;;;;;;;;;;;2081714;28;1240;-79
2021/10/24 05:44:23;;;;;;;;;;;;;;;;;;2091399;28;1339;-79
2021/10/24 05:45:28;;;;;;;;;;;;;;;;;;2083792;28;1410;-79
2021/10/24 05:46:32;;;;;;;;;;;;;;;;;;2083910;28;1362;-79
2021/10/24 05:47:39;;;;;;;;;;;;;;;;;;2084366;28;1475;-79
2021/10/24 05:48:50;;;;;;;;;;;;;;;;;;2084990;28;1314;-79
2021/10/24 05:49:56;;;;;;;;;;;;;;;;;;2084287;28;1914;-79
2021/10/24 05:51:00;;;;;;;;;;;;;;;;;;2083825;28;1859;-80
2021/10/24 05:52:03;;;;;;;;;;;;;;;;;;2092088;28;1330;-79
2021/10/24 05:53:05;;;;;;;;;;;;;;;;;;2091813;28;981;-80
2021/10/24 05:54:07;;;;;;;;;;;;;;;;;;2091985;28;1755;-78
2021/10/24 05:55:11;;;;;;;;;;;;;;;;;;2083712;28;1389;-79
2021/10/24 05:56:14;;;;;;;;;;;;;;;;;;2083438;28;1739;-79
2021/10/24 05:57:18;;;;;;;;;;;;;;;;;;2075940;28;1294;-79
2021/10/24 05:58:39;;;;;;;;;;;;;;;;;;2077884;28;1155;-79
2021/10/24 06:00:01;;;;;;;;;;;;;;;;;;2083886;28;1198;-79
2021/10/24 06:01:08;;;;;;;;;;;;;;;;;;2083404;28;701;-79
2021/10/24 06:02:47;;;;;;;;;;;;;;;;;;2083875;28;1286;-79
2021/10/24 06:04:24;;;;;;;;;;;;;;;;;;2075729;28;1788;-79
2021/10/24 06:05:50;;;;;;;;;;;;;;;;;;2080834;28;1332;-79
2021/10/24 06:06:51;;;;;;;;;;;;;;;;;;2092004;28;1222;-80
2021/10/24 06:07:54;;;;;;;;;;;;;;;;;;2091564;28;1278;-80
2021/10/24 06:08:55;;;;;;;;;;;;;;;;;;2075746;28;1234;-80
2021/10/24 06:10:01;;;;;;;;;;;;;;;;;;2082815;28;1972;-80
2021/10/24 06:11:13;;;;;;;;;;;;;;;;;;2092018;28;1703;-81
2021/10/24 06:12:16;;;;;;;;;;;;;;;;;;2092055;28;1271;-80
2021/10/24 06:13:19;;;;;;;;;;;;;;;;;;2097429;28;1294;-80
2021/10/24 06:14:19;;;;;;;;;;;;;;;;;;2091665;28;1754;-81
2021/10/24 06:15:22;;;;;;;;;;;;;;;;;;2083166;28;1457;-80
2021/10/24 06:16:24;;;;;;;;;;;;;;;;;;2083604;28;1285;-80
2021/10/24 06:17:25;;;;;;;;;;;;;;;;;;2083071;28;1184;-80
2021/10/24 06:18:28;;;;;;;;;;;;;;;;;;2083152;28;1371;-80
2021/10/24 06:19:29;;;;;;;;;;;;;;;;;;2091122;28;1276;-81
2021/10/24 06:20:31;;;;;;;;;;;;;;;;;;2091391;28;1667;-81
2021/10/24 06:21:32;;;;;;;;;;;;;;;;;;2083451;28;1388;-81
2021/10/24 06:22:34;;;;;;;;;;;;;;;;;;2083294;28;1248;-81
2021/10/24 06:23:39;;;;;;;;;;;;;;;;;;2083735;28;1270;-80
2021/10/24 06:24:43;;;;;;;;;;;;;;;;;;2091293;28;1282;-80
2021/10/24 06:25:47;;;;;;;;;;;;;;;;;;2088499;28;1712;-80
2021/10/24 06:26:48;;;;;;;;;;;;;;;;;;2083592;28;1375;-80
2021/10/24 06:27:52;;;;;;;;;;;;;;;;;;2075037;28;1669;-80
2021/10/24 06:28:53;;;;;;;;;;;;;;;;;;2075158;28;1358;-80
2021/10/24 06:29:56;;;;;;;;;;;;;;;;;;2074534;28;1914;-80
2021/10/24 06:31:16;;;;;;;;;;;;;;;;;;2083202;28;618;-80
2021/10/24 06:32:51;;;;;;;;;;;;;;;;;;2083543;28;1589;-79
2021/10/24 06:34:17;;;;;;;;;;;;;;;;;;2050698;29;1772;-79
2021/10/24 06:35:37;;;;;;;;;;;;;;;;;;2082944;28;1493;-79
2021/10/24 06:37:11;;;;;;;;;;;;;;;;;;2078762;28;1474;-78
2021/10/24 06:38:13;;;;;;;;;;;;;;;;;;2080202;28;1184;-79
2021/10/24 06:39:18;;;;;;;;;;;;;;;;;;2075387;28;2012;-79
2021/10/24 06:40:19;;;;;;;;;;;;;;;;;;2074857;28;1716;-79
2021/10/24 06:41:30;;;;;;;;;;;;;;;;;;2076188;28;1851;-79
2021/10/24 06:42:52;;;;;;;;;;;;;;;;;;2082664;28;1811;-79
2021/10/24 06:44:16;;;;;;;;;;;;;;;;;;2074788;28;1578;-79
2021/10/24 06:45:25;;;;;;;;;;;;;;;;;;2078656;28;599;-79
2021/10/24 06:46:58;;;;;;;;;;;;;;;;;;2079153;28;1389;-82
2021/10/24 06:48:11;;;;;;;;;;;;;;;;;;2080903;28;1266;-79
2021/10/24 06:49:37;;;;;;;;;;;;;;;;;;2082468;28;1658;-79
2021/10/24 06:50:58;;;;;;;;;;;;;;;;;;2076353;28;1239;-82
2021/10/24 06:52:19;;;;;;;;;;;;;;;;;;2063379;28;1248;-79
2021/10/24 06:53:25;;;;;;;;;;;;;;;;;;2078961;28;2041;-79
2021/10/24 06:54:45;;;;;;;;;;;;;;;;;;2082842;28;1448;-80
2021/10/24 06:56:05;;;;;;;;;;;;;;;;;;2083246;28;627;-79
2021/10/24 06:57:26;;;;;;;;;;;;;;;;;;2077722;28;1289;-80
2021/10/24 06:58:31;;;;;;;;;;;;;;;;;;2082936;28;826;-80
2021/10/24 07:00:05;;;;;;;;;;;;;;;;;;2066039;28;1713;-80
2021/10/24 07:01:33;;;;;;;;;;;;;;;;;;2065439;28;1490;-80
2021/10/24 07:02:53;;;;;;;;;;;;;;;;;;2077850;28;637;-80
2021/10/24 07:04:14;;;;;;;;;;;;;;;;;;2083509;28;1340;-80
2021/10/24 07:05:27;;;;;;;;;;;;;;;;;;2082806;28;1202;-80
2021/10/24 07:06:34;;;;;;;;;;;;;;;;;;2071716;28;1546;-80
2021/10/24 07:07:57;;;;;;;;;;;;;;;;;;2074599;28;1310;-80
2021/10/24 07:08:58;;;;;;;;;;;;;;;;;;2076275;28;1428;-81
2021/10/24 07:10:00;;;;;;;;;;;;;;;;;;2066042;28;1408;-81
2021/10/24 07:11:02;;;;;;;;;;;;;;;;;;2066513;28;1906;-81
2021/10/24 07:12:03;;;;;;;;;;;;;;;;;;2074722;28;1308;-80
2021/10/24 07:13:06;;;;;;;;;;;;;;;;;;2074320;28;1827;-81
2021/10/24 07:14:07;;;;;;;;;;;;;;;;;;2082759;28;1335;-80
2021/10/24 07:15:09;;;;;;;;;;;;;;;;;;2081964;28;1182;-79
2021/10/24 07:16:13;;;;;;;;;;;;;;;;;;2075138;28;1598;-79
2021/10/24 07:17:13;;;;;;;;;;;;;;;;;;2082499;28;1357;-79
2021/10/24 07:18:16;;;;;;;;;;;;;;;;;;2074635;28;1521;-79
2021/10/24 07:19:16;;;;;;;;;;;;;;;;;;2074253;28;1328;-80
2021/10/24 07:20:19;;;;;;;;;;;;;;;;;;2074640;28;1521;-80
2021/10/24 07:21:28;;;;;;;;;;;;;;;;;;2082653;28;1425;-79
2021/10/24 07:22:31;;;;;;;;;;;;;;;;;;2079584;28;1356;-79
2021/10/24 07:23:34;;;;;;;;;;;;;;;;;;2083282;28;1218;-80
2021/10/24 07:24:50;;;;;;;;;;;;;;;;;;2077479;28;1552;-80
2021/10/24 07:25:52;;;;;;;;;;;;;;;;;;2078552;28;1592;-80